Terminal Aerodrome Forecast
Issued by NWS

Home | Current Version | Previous Version | Text Only | Print | Product List | Glossary On
Versions: 1 2 3 4 5 6 7 8 9 10 11 12 13 14
000
FTUS45 KTWC 301134
TAFOLS
TAF
KOLS 301134Z 3012/0112 VRB03KT P6SM SCT070
     FM301900 28008KT P6SM SCT070 BKN120
     FM010200 14005KT P6SM FEW070 SCT120
     FM010500 VRB03KT P6SM FEW120=

USA.gov is the U.S. government's official web portal to all federal, state and local government web resources and services.